createdAt,value
2019-04-23T00:01:35.365Z,15.44
2019-04-23T00:04:03.769Z,15.44
2019-04-23T00:06:34.306Z,15.36
2019-04-23T00:09:15.750Z,15.34
2019-04-23T00:14:11.556Z,15.23
2019-04-23T00:16:38.202Z,15.20
2019-04-23T00:19:12.014Z,15.24
2019-04-23T00:22:13.305Z,15.14
2019-04-23T00:25:21.894Z,15.08
2019-04-23T00:32:23.737Z,15.03
2019-04-23T00:37:25.654Z,14.96
2019-04-23T00:44:54.296Z,14.84
2019-04-23T00:47:25.559Z,14.76
2019-04-23T00:50:04.310Z,14.74
2019-04-23T00:52:30.474Z,14.70
2019-04-23T00:55:09.984Z,14.65
2019-04-23T00:57:29.037Z,14.65
2019-04-23T01:00:03.523Z,14.59
2019-04-23T01:02:31.091Z,14.59
2019-04-23T01:05:03.620Z,14.54
2019-04-23T01:07:34.904Z,14.47
2019-04-23T01:15:10.283Z,14.37
2019-04-23T01:17:49.147Z,14.35
2019-04-23T01:20:39.132Z,14.36
2019-04-23T01:22:44.311Z,14.27
2019-04-23T01:25:30.380Z,14.22
2019-04-23T01:28:23.529Z,14.17
2019-04-23T01:30:59.142Z,14.21
2019-04-23T01:33:29.670Z,14.15
2019-04-23T01:38:27.930Z,14.12
2019-04-23T01:40:53.871Z,14.05
2019-04-23T01:43:30.202Z,13.99
2019-04-23T01:45:54.704Z,14.01
2019-04-23T01:48:30.003Z,14.03
2019-04-23T01:50:56.241Z,14.00
2019-04-23T01:53:37.140Z,13.97
2019-04-23T01:56:19.809Z,13.93
2019-04-23T02:01:07.147Z,13.90
2019-04-23T02:06:07.430Z,13.90
2019-04-23T02:08:41.699Z,13.90
2019-04-23T02:11:10.304Z,13.86
2019-04-23T02:13:42.061Z,13.80
2019-04-23T02:16:12.060Z,13.80
2019-04-23T02:18:45.505Z,13.79
2019-04-23T02:21:15.019Z,13.78
2019-04-23T02:23:48.985Z,13.74
2019-04-23T02:26:27.722Z,13.74
2019-04-23T02:31:46.639Z,13.75
2019-04-23T02:34:05.975Z,13.70
2019-04-23T02:36:32.320Z,13.63
2019-04-23T02:38:56.345Z,13.57
2019-04-23T02:41:47.039Z,13.55
2019-04-23T02:44:11.497Z,13.53
2019-04-23T02:46:36.155Z,13.50
2019-04-23T02:54:16.380Z,13.47
2019-04-23T03:02:05.765Z,13.42
2019-04-23T03:04:21.974Z,13.40
2019-04-23T03:06:56.449Z,13.33
2019-04-23T03:09:22.907Z,13.30
2019-04-23T03:14:18.705Z,13.30
2019-04-23T03:23:03.194Z,13.22
2019-04-23T03:25:45.858Z,13.25
2019-04-23T03:28:11.731Z,13.22
2019-04-23T03:38:45.753Z,13.12
2019-04-23T03:41:18.325Z,13.10
2019-04-23T03:46:11.851Z,13.02
2019-04-23T03:48:34.083Z,13.00
2019-04-23T03:50:58.654Z,12.99
2019-04-23T03:56:07.959Z,12.99
2019-04-23T04:01:06.769Z,12.95
2019-04-23T04:06:11.352Z,12.96
2019-04-23T04:09:00.618Z,12.94
2019-04-23T04:18:44.455Z,12.96
2019-04-23T04:21:14.507Z,12.89
2019-04-23T04:23:51.422Z,12.87
2019-04-23T04:26:17.875Z,12.84
2019-04-23T04:28:48.629Z,12.84
2019-04-23T04:31:18.749Z,12.90
2019-04-23T04:33:58.620Z,12.78
2019-04-23T12:11:53.837Z,23.28
2019-04-23T12:22:07.882Z,23.24
2019-04-23T12:25:03.533Z,23.57
2019-04-23T12:27:14.093Z,24.10
2019-04-23T12:32:43.057Z,24.05
2019-04-23T12:37:56.253Z,23.70
2019-04-23T12:40:24.778Z,23.84
2019-04-23T12:45:26.835Z,23.33
2019-04-23T13:02:59.016Z,22.88
2019-04-23T13:05:31.824Z,22.88
2019-04-23T13:08:02.086Z,23.05
2019-04-23T13:10:32.319Z,23.09
2019-04-23T13:15:34.563Z,23.10
2019-04-23T13:18:27.277Z,23.05
2019-04-23T13:25:53.909Z,22.79
2019-04-23T13:28:21.164Z,22.69
2019-04-23T13:33:34.742Z,22.69
2019-04-23T13:36:03.371Z,22.80
2019-04-23T13:38:35.074Z,22.64
2019-04-23T13:41:01.449Z,22.65
2019-04-23T13:43:38.041Z,22.75
2019-04-23T13:46:14.057Z,22.74
2019-04-23T13:53:40.558Z,22.90
2019-04-23T13:56:05.829Z,23.06
2019-04-23T13:58:34.501Z,23.07
2019-04-23T14:01:18.184Z,22.98
2019-04-23T14:03:41.262Z,22.98
2019-04-23T14:06:18.386Z,23.16
2019-04-23T14:08:47.002Z,23.11
2019-04-23T14:13:52.192Z,23.06
2019-04-23T14:16:23.436Z,22.82
2019-04-23T14:18:55.921Z,22.82
2019-04-23T14:21:23.318Z,22.80
2019-04-23T14:26:24.937Z,22.89
2019-04-23T14:28:44.549Z,22.88
2019-04-23T14:31:17.317Z,22.75
2019-04-23T14:34:03.571Z,22.74
2019-04-23T14:36:25.467Z,22.79
2019-04-23T14:39:06.512Z,23.12
2019-04-23T14:41:31.063Z,23.34
2019-04-23T14:44:11.387Z,23.44
2019-04-23T14:49:16.164Z,23.47
2019-04-23T14:54:24.761Z,24.06
2019-04-23T14:56:56.900Z,24.13
2019-04-23T14:59:11.042Z,24.18
2019-04-23T15:01:48.924Z,24.13
2019-04-23T15:04:24.686Z,24.12
2019-04-23T15:09:27.616Z,24.08
2019-04-23T15:12:06.160Z,23.99
2019-04-23T15:14:23.466Z,23.78
2019-04-23T15:17:00.089Z,23.53
2019-04-23T15:22:08.338Z,23.34
2019-04-23T15:24:37.623Z,23.44
2019-04-23T15:29:27.987Z,23.65
2019-04-23T15:32:07.785Z,23.80
2019-04-23T15:34:36.855Z,23.64
2019-04-23T15:37:32.563Z,23.36
2019-04-23T15:39:46.479Z,23.36
2019-04-23T15:42:16.793Z,23.34
2019-04-23T15:44:48.924Z,23.21
2019-04-23T15:49:53.190Z,23.08
2019-04-23T15:52:19.202Z,23.14
2019-04-23T15:54:54.935Z,23.22
2019-04-23T15:57:41.705Z,23.15
2019-04-23T15:59:55.906Z,23.13
2019-04-23T16:01:56.394Z,23.12
2019-04-23T16:04:25.572Z,23.11
2019-04-23T16:06:55.970Z,23.05
2019-04-23T16:10:01.259Z,22.89
2019-04-23T16:12:17.633Z,22.80
2019-04-23T16:17:28.892Z,22.73
2019-04-23T16:20:25.530Z,22.68
2019-04-23T16:22:39.578Z,22.69
2019-04-23T16:25:12.731Z,22.70
2019-04-23T16:27:49.016Z,22.70
2019-04-23T16:33:08.733Z,22.55
2019-04-23T16:36:08.795Z,22.56
2019-04-23T16:41:07.244Z,22.52
2019-04-23T16:43:33.818Z,22.54
2019-04-23T16:46:09.720Z,22.62
2019-04-23T16:48:58.371Z,22.71
2019-04-23T16:51:16.614Z,22.82
2019-04-23T16:53:30.189Z,22.96
2019-04-23T16:56:16.663Z,23.09
2019-04-23T16:58:48.876Z,23.16
2019-04-23T17:08:57.155Z,23.22
2019-04-23T17:13:52.084Z,23.32
2019-04-23T17:21:18.158Z,23.10
2019-04-23T17:24:05.768Z,23.11
2019-04-23T17:26:25.620Z,23.12
2019-04-23T17:29:00.402Z,23.06
2019-04-23T17:34:02.537Z,22.77
2019-04-23T17:36:38.062Z,22.56
2019-04-23T17:39:22.568Z,22.17
2019-04-23T17:42:12.539Z,21.99
2019-04-23T17:44:48.409Z,21.84
2019-04-23T17:47:30.055Z,21.60
2019-04-23T17:50:05.624Z,21.42
2019-04-23T17:52:34.909Z,21.27
2019-04-23T17:55:07.053Z,21.16
2019-04-23T18:00:18.935Z,20.89
2019-04-23T18:05:12.941Z,20.57
2019-04-23T18:10:24.344Z,20.33
2019-04-23T18:12:45.320Z,20.27
2019-04-23T18:15:13.129Z,20.12
2019-04-23T18:17:43.457Z,19.96
2019-04-23T18:20:29.990Z,19.85
2019-04-23T18:23:06.652Z,19.77
2019-04-23T18:28:19.945Z,19.55
2019-04-23T18:34:01.867Z,19.31
2019-04-23T18:36:16.632Z,19.21
2019-04-23T18:38:54.604Z,19.07
2019-04-23T18:41:13.756Z,18.98
2019-04-23T18:43:51.023Z,18.85
2019-04-23T18:48:53.132Z,18.83
2019-04-23T18:51:27.146Z,18.77
2019-04-23T18:54:07.427Z,18.71
2019-04-23T18:56:23.426Z,18.61
2019-04-23T18:59:04.824Z,18.53
2019-04-23T19:01:31.071Z,18.46
2019-04-23T19:06:47.364Z,18.29
2019-04-23T19:13:04.265Z,18.14
2019-04-23T19:20:45.149Z,18.08
2019-04-23T19:23:08.299Z,18.07
2019-04-23T19:25:31.874Z,17.98
2019-04-23T19:28:07.583Z,17.91
2019-04-23T19:33:29.236Z,17.82
2019-04-23T19:36:05.474Z,17.79
2019-04-23T19:38:28.844Z,17.89
2019-04-23T19:40:56.671Z,17.88
2019-04-23T19:46:02.124Z,17.93
2019-04-23T19:48:30.352Z,17.96
2019-04-23T19:51:03.153Z,17.87
2019-04-23T20:03:43.790Z,17.04
2019-04-23T20:06:15.031Z,16.99
2019-04-23T20:13:50.684Z,16.72
2019-04-23T20:18:50.821Z,16.58
2019-04-23T20:21:08.322Z,16.45
2019-04-23T20:24:04.520Z,16.39
2019-04-23T20:29:36.061Z,16.32
2019-04-23T20:34:51.567Z,16.25
2019-04-23T20:36:53.280Z,16.16
2019-04-23T20:39:33.024Z,16.15
2019-04-23T20:44:39.479Z,16.06
2019-04-23T20:47:06.302Z,16.06
2019-04-23T20:50:03.712Z,16.03
2019-04-23T20:52:06.286Z,15.97
2019-04-23T20:57:30.914Z,15.89
2019-04-23T21:00:01.806Z,15.93
2019-04-23T21:03:05.319Z,16.00
2019-04-23T21:07:54.146Z,16.16
2019-04-23T21:10:30.702Z,16.21
2019-04-23T21:13:01.187Z,16.26
2019-04-23T21:20:26.316Z,16.32
2019-04-23T21:22:57.247Z,16.39
2019-04-23T21:25:27.253Z,16.39
2019-04-23T21:28:06.261Z,16.45
2019-04-23T21:30:58.591Z,16.47
2019-04-23T21:33:11.597Z,16.41
2019-04-23T21:38:46.398Z,16.14
2019-04-23T21:41:29.425Z,16.13
2019-04-23T21:46:22.169Z,16.02
2019-04-23T21:49:08.671Z,15.96
2019-04-23T21:51:41.914Z,15.89
2019-04-23T21:53:51.620Z,15.79
2019-04-23T21:56:21.586Z,15.68
2019-04-23T21:58:57.981Z,15.68
2019-04-23T22:04:08.515Z,15.56
2019-04-23T22:11:48.215Z,15.51
2019-04-23T22:16:41.071Z,15.44
2019-04-23T22:19:12.689Z,15.36
2019-04-23T22:21:43.035Z,15.34
2019-04-23T22:26:36.283Z,15.09
2019-04-23T22:34:17.870Z,14.89
2019-04-23T22:36:39.392Z,14.78
2019-04-23T22:39:11.634Z,14.76
2019-04-23T22:41:49.086Z,14.67
2019-04-23T22:44:12.219Z,14.65
2019-04-23T22:46:52.479Z,14.60
2019-04-23T22:51:55.435Z,14.46
2019-04-23T22:54:13.877Z,14.42
2019-04-23T22:56:54.989Z,14.37
2019-04-23T23:02:11.027Z,14.59
2019-04-23T23:04:44.369Z,14.63
2019-04-23T23:07:07.614Z,14.58
2019-04-23T23:09:43.881Z,14.52
2019-04-23T23:12:13.902Z,14.49
2019-04-23T23:14:46.014Z,14.42
2019-04-23T23:17:11.441Z,14.36
2019-04-23T23:19:49.351Z,14.24
2019-04-23T23:22:11.940Z,14.10
2019-04-23T23:24:46.497Z,14.14
2019-04-23T23:27:29.985Z,14.10
2019-04-23T23:30:00.028Z,14.05
2019-04-23T23:38:13.611Z,14.11
2019-04-23T23:39:58.356Z,14.15
2019-04-23T23:42:28.181Z,14.16
2019-04-23T23:45:02.142Z,14.12
2019-04-23T23:47:39.533Z,14.12
2019-04-23T23:50:01.078Z,14.05
2019-04-23T23:52:34.962Z,13.99
2019-04-23T23:55:01.768Z,13.92
2019-04-23T23:57:24.694Z,13.90
